Time;durP1;ratioP1;P1;durP2;ratioP2;P2;SDS_P1;SDS_P2;PMS_P1;PMS_P2;Temp;Humidity;BMP_temperature;BMP_pressure;BME280_temperature;BME280_humidity;BME280_pressure;Samples;Min_cycle;Max_cycle;Signal;HPM_P1;HPM_P2
2022/10/31 06:50:44;;;;;;;;;12.75;12.75;;;;;15.38;74.45;101564.81;3037339;22;45461;-75
2022/10/31 06:51:55;;;;;;;;;18.75;16.50;;;;;15.39;74.16;101565.66;3039992;22;47986;-74
2022/10/31 06:53:05;;;;;;;;;16.50;14.50;;;;;15.38;74.33;101553.38;3047571;22;44625;-74
2022/10/31 06:54:16;;;;;;;;;18.75;15.75;;;;;15.38;74.35;101556.03;3043211;22;47019;-75
2022/10/31 06:55:27;;;;;;;;;17.75;16.25;;;;;15.37;74.14;101552.50;3048479;22;45171;-75
2022/10/31 06:56:37;;;;;;;;;18.75;18.25;;;;;15.36;74.13;101544.63;3059724;22;46267;-75
2022/10/31 06:57:56;;;;;;;;;16.00;16.00;;;;;15.36;73.71;101552.56;3060070;22;45179;-75
2022/10/31 06:59:06;;;;;;;;;18.50;15.50;;;;;15.36;74.05;101560.53;3059396;22;46501;-75
2022/10/31 07:00:17;;;;;;;;;17.00;15.00;;;;;15.38;73.99;101563.97;3059949;22;44528;-74
2022/10/31 07:01:27;;;;;;;;;17.75;16.50;;;;;15.38;74.32;101561.31;3059842;22;45458;-74
2022/10/31 07:02:37;;;;;;;;;18.25;16.75;;;;;15.38;74.19;101562.16;3060029;22;45242;-75
2022/10/31 07:03:48;;;;;;;;;15.50;14.00;;;;;15.38;74.28;101558.66;3059780;22;46289;-75
2022/10/31 07:04:58;;;;;;;;;20.25;17.50;;;;;15.39;74.39;101566.53;3059919;22;45243;-75
2022/10/31 07:06:08;;;;;;;;;15.00;11.50;;;;;15.40;74.06;101562.13;3059379;22;46431;-75
2022/10/31 07:07:21;;;;;;;;;17.75;15.25;;;;;15.41;74.21;101556.75;3059914;22;45246;-75
2022/10/31 07:08:31;;;;;;;;;16.75;14.00;;;;;15.41;74.00;101559.38;3059336;22;45584;-75
2022/10/31 07:09:41;;;;;;;;;19.25;16.75;;;;;15.44;74.17;101554.88;3059786;22;45210;-75
2022/10/31 07:10:54;;;;;;;;;15.25;14.25;;;;;15.46;74.13;101553.91;3043152;22;46824;-75
2022/10/31 07:12:05;;;;;;;;;16.50;13.25;;;;;15.47;74.12;101558.28;3048826;22;45220;-75
2022/10/31 07:13:15;;;;;;;;;17.50;15.75;;;;;15.46;74.02;101561.84;3059009;22;45298;-75
2022/10/31 07:14:26;;;;;;;;;16.50;12.50;;;;;15.49;74.16;101558.22;3059882;22;44490;-75
2022/10/31 07:15:38;;;;;;;;;14.25;12.25;;;;;15.50;74.36;101568.78;3042624;22;47108;-75
2022/10/31 07:16:51;;;;;;;;;19.00;12.75;;;;;15.51;74.10;101564.31;3048426;22;45389;-75
2022/10/31 07:18:06;;;;;;;;;15.75;15.00;;;;;15.51;73.97;101556.34;3059725;22;45994;-75
2022/10/31 07:19:17;;;;;;;;;20.75;15.75;;;;;15.49;74.04;101551.13;3060043;22;44616;-75
2022/10/31 07:20:27;;;;;;;;;15.75;14.00;;;;;15.51;73.77;101553.72;3059469;22;46220;-75
2022/10/31 07:21:38;;;;;;;;;17.75;16.00;;;;;15.53;73.75;101551.88;3059860;22;45246;-75
2022/10/31 07:22:48;;;;;;;;;16.50;15.00;;;;;15.55;73.96;101552.69;3059600;22;46536;-75
2022/10/31 07:23:58;;;;;;;;;18.50;17.00;;;;;15.57;74.17;101549.97;3059862;22;45276;-75
2022/10/31 07:25:09;;;;;;;;;12.25;10.50;;;;;15.58;74.12;101557.00;3043001;22;48232;-75
2022/10/31 07:26:20;;;;;;;;;16.50;15.75;;;;;15.60;73.97;101556.00;3048390;22;45294;-75
2022/10/31 07:27:40;;;;;;;;;22.75;16.50;;;;;15.64;74.27;101549.66;3059829;22;46079;-75
2022/10/31 07:28:51;;;;;;;;;16.00;16.00;;;;;15.67;74.20;101548.66;3059482;22;45242;-75
2022/10/31 07:30:01;;;;;;;;;16.00;15.50;;;;;15.68;74.11;101550.34;3059696;22;46639;-75
2022/10/31 07:31:11;;;;;;;;;16.75;15.75;;;;;15.69;73.90;101546.81;3059911;22;45251;-75
2022/10/31 07:32:22;;;;;;;;;14.75;14.25;;;;;15.72;74.13;101546.69;3058911;22;45348;-75
2022/10/31 07:33:32;;;;;;;;;20.75;18.25;;;;;15.73;73.90;101548.38;3059624;22;45203;-75
2022/10/31 07:34:42;;;;;;;;;15.75;14.25;;;;;15.73;73.91;101548.38;3059696;22;45139;-75
2022/10/31 07:35:53;;;;;;;;;16.75;16.00;;;;;15.73;74.00;101551.03;3059552;22;45144;-75
2022/10/31 07:37:04;;;;;;;;;19.50;18.25;;;;;15.73;74.03;101547.50;3059659;22;45170;-75
2022/10/31 07:38:15;;;;;;;;;18.75;15.50;;;;;15.74;73.84;101555.41;3059886;22;45164;-75
2022/10/31 07:39:25;;;;;;;;;16.00;16.00;;;;;15.73;74.09;101545.72;3058223;22;47210;-75
2022/10/31 07:40:36;;;;;;;;;16.50;14.00;;;;;15.75;74.21;101546.53;3043364;22;44550;-75
2022/10/31 07:41:46;;;;;;;;;16.75;15.00;;;;;15.77;73.96;101549.13;3047873;22;46084;-75
2022/10/31 07:42:57;;;;;;;;;17.50;15.75;;;;;15.78;74.10;101552.66;3042837;22;45142;-75
2022/10/31 07:44:07;;;;;;;;;17.00;15.00;;;;;15.79;73.73;101549.94;3032043;22;48640;-75
2022/10/31 07:45:20;;;;;;;;;21.00;16.50;;;;;15.81;73.92;101549.84;3047256;22;45383;-75
2022/10/31 07:46:30;;;;;;;;;17.25;14.50;;;;;15.82;73.65;101541.84;3059251;22;45266;-74
2022/10/31 07:47:44;;;;;;;;;16.50;14.00;;;;;15.84;73.81;101545.28;3043175;22;45289;-74
2022/10/31 07:48:55;;;;;;;;;16.00;12.25;;;;;15.85;74.14;101538.22;3048751;22;46621;-74
2022/10/31 07:50:06;;;;;;;;;16.00;15.00;;;;;15.85;73.81;101535.56;3059819;22;45139;-74
2022/10/31 07:51:16;;;;;;;;;16.00;12.00;;;;;15.86;73.78;101542.56;3058874;22;45488;-74
2022/10/31 07:52:26;;;;;;;;;22.00;15.25;;;;;15.87;73.86;101533.69;3059858;22;45236;-74
2022/10/31 07:53:37;;;;;;;;;15.75;14.75;;;;;15.89;73.83;101539.78;3059615;22;45915;-74
2022/10/31 07:54:47;;;;;;;;;13.00;12.25;;;;;15.91;74.07;101540.59;3059554;22;44659;-74
2022/10/31 07:55:57;;;;;;;;;15.00;11.50;;;;;15.94;74.27;101536.94;3043047;22;47178;-74
2022/10/31 07:57:08;;;;;;;;;17.50;16.25;;;;;15.96;74.00;101532.44;3043079;22;44647;-74
2022/10/31 07:58:19;;;;;;;;;18.50;14.50;;;;;15.97;73.82;101532.38;3032162;22;47150;-74
2022/10/31 07:59:29;;;;;;;;;17.25;15.00;;;;;15.96;73.91;101538.59;3048102;22;45225;-74
2022/10/31 08:00:42;;;;;;;;;19.75;15.75;;;;;15.98;73.80;101533.22;3059548;22;46285;-75
2022/10/31 08:01:52;;;;;;;;;14.50;11.25;;;;;16.00;73.98;101538.47;3059554;22;45124;-74
2022/10/31 08:03:06;;;;;;;;;19.00;18.25;;;;;16.01;73.97;101540.19;3059542;22;46413;-74
2022/10/31 08:04:16;;;;;;;;;19.75;15.25;;;;;16.02;73.85;101540.13;3059524;22;45170;-74
2022/10/31 08:05:27;;;;;;;;;16.00;15.50;;;;;16.02;73.89;101536.63;3059063;22;45270;-74
2022/10/31 08:06:37;;;;;;;;;16.50;13.75;;;;;16.03;73.70;101535.66;3059582;22;45316;-74
2022/10/31 08:07:47;;;;;;;;;18.75;16.00;;;;;16.05;73.62;101541.81;3059501;22;45308;-74
2022/10/31 08:08:58;;;;;;;;;14.00;14.00;;;;;16.07;74.01;101534.66;3059760;22;44607;-74
2022/10/31 08:10:08;;;;;;;;;18.00;15.00;;;;;16.08;73.25;101542.53;3059499;22;45445;-74
2022/10/31 08:11:18;;;;;;;;;15.75;14.50;;;;;16.09;73.46;101532.78;3059592;22;45143;-74
2022/10/31 08:12:29;;;;;;;;;17.50;16.25;;;;;16.12;73.63;101532.66;3059053;22;46168;-74
2022/10/31 08:13:40;;;;;;;;;15.75;12.75;;;;;16.14;73.46;101529.94;3059444;22;44687;-74
2022/10/31 08:14:50;;;;;;;;;17.00;15.75;;;;;16.15;73.38;101531.69;3041320;22;47899;-74
2022/10/31 08:16:04;;;;;;;;;20.00;15.25;;;;;16.17;73.46;101529.81;3043148;22;45246;-74
2022/10/31 08:17:14;;;;;;;;;14.00;12.50;;;;;16.20;73.50;101535.81;3048330;22;46178;-74
2022/10/31 08:18:24;;;;;;;;;14.75;14.75;;;;;16.23;73.86;101528.66;3042930;22;44598;-74
2022/10/31 08:19:35;;;;;;;;;17.75;13.25;;;;;16.26;74.02;101531.19;3047168;22;45475;-74
2022/10/31 08:20:45;;;;;;;;;19.50;15.00;;;;;16.26;73.66;101528.53;3059272;22;44518;-74
2022/10/31 08:21:55;;;;;;;;;18.25;16.25;;;;;16.27;73.53;101524.97;3042476;22;47926;-74
2022/10/31 08:23:06;;;;;;;;;20.75;14.25;;;;;16.29;73.73;101521.31;3048137;22;45179;-74
2022/10/31 08:24:16;;;;;;;;;22.25;18.50;;;;;16.30;73.34;101525.66;3042839;22;48048;-74
2022/10/31 08:25:29;;;;;;;;;16.00;15.00;;;;;16.34;73.52;101521.09;3047758;22;45289;-74
2022/10/31 08:26:39;;;;;;;;;20.25;16.25;;;;;16.35;73.03;101528.13;3059249;22;46218;-74
2022/10/31 08:27:51;;;;;;;;;21.25;17.25;;;;;16.37;73.21;101515.63;3059399;22;46217;-74
2022/10/31 08:29:02;;;;;;;;;20.25;20.25;;;;;16.38;72.94;101520.03;3059392;22;45360;-74
2022/10/31 08:30:12;;;;;;;;;19.75;17.00;;;;;16.40;73.43;101519.94;3043023;22;45231;-74
2022/10/31 08:31:23;;;;;;;;;14.75;12.75;;;;;16.45;73.28;101522.38;3042459;22;48227;-74
2022/10/31 08:32:33;;;;;;;;;22.75;19.50;;;;;16.49;73.18;101518.69;3048087;22;44507;-74
2022/10/31 08:33:44;;;;;;;;;19.50;16.75;;;;;16.52;72.67;101518.53;3059560;22;45088;-74
2022/10/31 08:34:54;;;;;;;;;18.75;18.75;;;;;16.53;72.66;101509.63;3059675;22;44576;-74
2022/10/31 08:36:05;;;;;;;;;23.00;19.75;;;;;16.55;72.98;101510.44;3058686;22;45269;-74
2022/10/31 08:37:19;;;;;;;;;23.50;20.25;;;;;16.56;72.61;101498.91;3059641;22;45365;-74
2022/10/31 08:38:29;;;;;;;;;24.50;20.50;;;;;16.56;71.98;101504.19;3042683;22;46007;-74
2022/10/31 08:39:40;;;;;;;;;26.50;21.75;;;;;16.58;72.39;101496.16;3047972;22;44633;-73
2022/10/31 08:40:50;;;;;;;;;25.75;23.75;;;;;16.58;71.95;101496.16;3042576;22;50583;-73
2022/10/31 08:42:00;;;;;;;;;24.75;21.00;;;;;16.62;72.37;101490.63;3031375;22;44739;-74
2022/10/31 08:43:13;;;;;;;;;25.50;22.25;;;;;16.65;72.75;101498.47;3032063;22;46972;-74
2022/10/31 08:44:23;;;;;;;;;26.75;21.25;;;;;16.70;72.70;101492.94;3032517;22;45185;-74
2022/10/31 08:45:34;;;;;;;;;31.75;20.75;;;;;16.72;72.11;101491.06;3046558;22;54975;-74
2022/10/31 08:46:44;;;;;;;;;25.75;24.00;;;;;16.75;72.01;101484.75;3042851;22;44611;-73
2022/10/31 08:47:59;;;;;;;;;24.00;21.50;;;;;16.76;72.07;101489.13;3047766;22;46288;-74
2022/10/31 08:49:10;;;;;;;;;28.25;24.00;;;;;16.79;71.61;101491.63;3059349;22;45255;-74
2022/10/31 08:50:20;;;;;;;;;30.50;25.50;;;;;16.79;71.81;101490.78;3059319;22;46169;-74
2022/10/31 08:51:30;;;;;;;;;26.25;20.00;;;;;16.81;72.14;101488.91;3058355;22;45223;-74
2022/10/31 08:52:41;;;;;;;;;27.25;21.25;;;;;16.80;72.16;101493.34;3058783;22;45186;-74
2022/10/31 08:53:51;;;;;;;;;20.50;20.50;;;;;16.83;71.87;101484.38;3059487;22;45117;-74
2022/10/31 08:55:01;;;;;;;;;22.75;17.50;;;;;16.87;72.38;101485.94;3058780;22;46223;-73
2022/10/31 08:56:12;;;;;;;;;21.50;20.00;;;;;16.89;71.90;101477.94;3059649;22;45253;-74
2022/10/31 08:57:22;;;;;;;;;27.25;22.25;;;;;16.93;72.15;101482.16;3059296;22;45264;-74
2022/10/31 08:58:32;;;;;;;;;24.00;20.75;;;;;16.94;72.19;101478.56;3043014;22;45199;-74
2022/10/31 08:59:43;;;;;;;;;25.00;22.00;;;;;16.99;72.11;101481.84;3047446;22;45301;-74
2022/10/31 09:00:56;;;;;;;;;27.25;22.25;;;;;17.04;72.10;101481.66;3059526;22;45163;-74
2022/10/31 09:02:07;;;;;;;;;27.25;23.75;;;;;17.08;71.75;101489.38;3058544;22;45313;-74
2022/10/31 09:03:25;;;;;;;;;25.75;24.25;;;;;17.15;71.89;101473.13;3042967;22;45183;-74
2022/10/31 09:04:35;;;;;;;;;25.00;23.50;;;;;17.17;71.92;101463.31;3049562;22;45337;-74
2022/10/31 09:05:45;;;;;;;;;22.50;21.50;;;;;17.18;71.99;101462.41;3042463;22;46425;-74
2022/10/31 09:06:56;;;;;;;;;27.00;20.25;;;;;17.20;71.51;101455.22;3047226;22;45410;-74
2022/10/31 09:08:07;;;;;;;;;20.50;20.50;;;;;17.21;71.55;101456.94;3042408;22;52469;-74
2022/10/31 09:09:17;;;;;;;;;28.75;24.25;;;;;17.24;71.10;101456.75;3047806;22;45356;-74
2022/10/31 09:10:29;;;;;;;;;25.25;23.75;;;;;17.25;71.36;101445.22;3059411;22;45194;-74
2022/10/31 09:11:39;;;;;;;;;23.25;20.50;;;;;17.27;71.34;101430.06;3042235;22;47196;-74
2022/10/31 09:13:06;;;;;;;;;23.00;21.25;;;;;17.29;71.08;101433.50;3048081;22;44636;-74
2022/10/31 09:14:16;;;;;;;;;16.00;16.00;;;;;17.33;70.87;101434.22;3059104;22;46077;-74
2022/10/31 09:15:28;;;;;;;;;30.50;25.75;;;;;17.34;71.11;101427.06;3059236;22;45159;-74
2022/10/31 09:16:38;;;;;;;;;25.75;21.50;;;;;17.37;71.29;101426.91;3059206;22;46563;-74
2022/10/31 09:17:49;;;;;;;;;25.75;21.50;;;;;17.38;70.80;101423.34;3059701;22;44652;-74
2022/10/31 09:18:59;;;;;;;;;24.25;20.75;;;;;17.39;70.92;101412.63;3042066;22;47948;-74
2022/10/31 09:20:09;;;;;;;;;30.00;23.00;;;;;17.41;71.16;101415.19;3047715;22;45351;-74
2022/10/31 09:21:20;;;;;;;;;22.50;18.25;;;;;17.43;70.84;101410.69;3058945;22;46191;-74
2022/10/31 09:22:30;;;;;;;;;28.75;24.00;;;;;17.47;70.95;101408.72;3059494;22;45175;-74
2022/10/31 09:23:40;;;;;;;;;25.25;22.75;;;;;17.49;70.61;101405.03;3042381;22;54874;-74
2022/10/31 09:24:51;;;;;;;;;24.00;21.25;;;;;17.51;70.79;101403.16;3047933;22;45243;-74
2022/10/31 09:26:02;;;;;;;;;14.50;14.50;;;;;17.56;70.20;101407.41;3058726;22;45314;-74
2022/10/31 09:27:12;;;;;;;;;25.00;24.00;;;;;17.59;70.61;101402.75;3059559;22;45305;-74
2022/10/31 09:28:24;;;;;;;;;25.25;20.25;;;;;17.63;69.98;101403.47;3059147;22;46155;-74
2022/10/31 09:29:34;;;;;;;;;14.75;14.25;;;;;17.64;69.94;101406.03;3059405;22;45166;-74
2022/10/31 09:30:47;;;;;;;;;16.75;16.00;;;;;17.68;69.86;101411.19;3059049;22;54686;-74
2022/10/31 09:31:57;;;;;;;;;27.50;22.00;;;;;17.71;70.04;101403.91;3043015;22;45325;-74
2022/10/31 09:33:12;;;;;;;;;16.50;14.25;;;;;17.74;69.76;101405.53;3046899;22;47956;-74
2022/10/31 09:34:22;;;;;;;;;24.50;19.75;;;;;17.77;69.48;101403.59;3058950;22;45179;-74
2022/10/31 09:35:33;;;;;;;;;21.50;17.75;;;;;17.78;69.37;101404.44;3058008;22;55438;-74
2022/10/31 09:36:45;;;;;;;;;19.75;18.25;;;;;17.81;69.86;101406.06;3059714;22;45155;-74
2022/10/31 09:38:04;;;;;;;;;19.25;17.00;;;;;17.84;69.16;101400.59;3059022;22;46432;-74
2022/10/31 09:39:14;;;;;;;;;24.25;21.25;;;;;17.88;69.49;101397.69;3059614;22;45156;-74
2022/10/31 09:40:33;;;;;;;;;21.75;17.00;;;;;17.92;69.31;101401.06;3059071;22;48603;-74
2022/10/31 09:42:08;;;;;;;;;17.75;17.00;;;;;17.95;69.35;101390.22;3059775;22;44525;-74
2022/10/31 09:43:37;;;;;;;;;26.50;21.00;;;;;17.97;69.02;101382.19;3059356;22;46197;-74
2022/10/31 09:44:50;;;;;;;;;25.50;21.25;;;;;17.99;69.13;101390.94;3059663;22;45166;-74
2022/10/31 09:46:40;;;;;;;;;21.00;18.75;;;;;18.00;68.84;101382.88;3042046;22;48248;-74
2022/10/31 09:48:09;;;;;;;;;15.25;13.25;;;;;18.03;68.73;101380.97;3039459;22;45278;-74
2022/10/31 09:49:29;;;;;;;;;24.75;23.00;;;;;18.05;68.53;101376.47;3035140;22;47497;-75
2022/10/31 09:51:04;;;;;;;;;27.75;22.50;;;;;18.05;68.74;101371.97;3032341;22;45305;-75
2022/10/31 09:52:23;;;;;;;;;20.25;19.00;;;;;18.05;68.63;101371.13;3053095;22;45267;-75
2022/10/31 09:53:59;;;;;;;;;23.00;19.25;;;;;18.03;68.95;101365.88;3059405;22;45285;-75
2022/10/31 09:55:20;;;;;;;;;28.25;23.50;;;;;18.03;68.69;101362.38;3059227;22;46443;-74
2022/10/31 09:56:32;;;;;;;;;21.75;14.50;;;;;18.02;68.44;101368.63;3059403;22;45168;-75
2022/10/31 09:57:43;;;;;;;;;22.25;20.00;;;;;18.02;69.01;101363.31;3059032;22;46258;-75
2022/10/31 09:59:00;;;;;;;;;23.50;20.75;;;;;18.04;68.85;101370.28;3058608;22;45285;-74
2022/10/31 10:00:20;;;;;;;;;29.25;21.75;;;;;18.04;68.76;101372.06;3057717;22;45557;-74
2022/10/31 10:01:38;;;;;;;;;19.00;14.50;;;;;18.03;69.06;101363.22;3057761;22;45225;-75
2022/10/31 10:03:10;;;;;;;;;24.50;20.50;;;;;18.05;68.89;101369.31;3058141;22;45247;-74
2022/10/31 10:04:30;;;;;;;;;18.25;16.50;;;;;18.04;68.91;101370.28;3042947;22;45179;-74
2022/10/31 10:05:57;;;;;;;;;19.50;14.25;;;;;18.07;68.85;101361.28;3049286;22;45437;-74
2022/10/31 10:07:51;;;;;;;;;18.50;14.75;;;;;18.08;68.95;101357.66;3042855;22;44598;-74
2022/10/31 10:09:02;;;;;;;;;19.50;17.25;;;;;18.09;68.50;101352.25;3025970;22;45488;-74
2022/10/31 10:10:17;;;;;;;;;22.00;18.50;;;;;18.13;68.36;101344.97;3059399;22;45160;-74
2022/10/31 10:11:37;;;;;;;;;18.00;15.00;;;;;18.14;68.44;101344.03;3059107;22;46549;-74
2022/10/31 10:13:02;;;;;;;;;19.50;18.50;;;;;18.19;68.08;101342.00;3058834;22;45265;-74
2022/10/31 10:14:38;;;;;;;;;18.75;15.50;;;;;18.24;68.33;101339.09;3059440;22;46483;-74
2022/10/31 10:16:09;;;;;;;;;17.50;15.75;;;;;18.27;68.15;101332.72;3042457;22;44675;-74
2022/10/31 10:17:28;;;;;;;;;20.25;20.00;;;;;18.30;68.73;101332.53;3052001;22;45393;-75
2022/10/31 10:18:52;;;;;;;;;22.50;18.50;;;;;18.30;68.21;101330.75;3059520;22;45092;-74
2022/10/31 10:20:30;;;;;;;;;21.50;19.00;;;;;18.34;68.59;101323.44;3058916;22;46274;-74
2022/10/31 10:22:05;;;;;;;;;17.25;14.00;;;;;18.35;68.07;101325.16;3059078;22;45359;-74
2022/10/31 10:23:39;;;;;;;;;25.50;20.25;;;;;18.35;67.87;101319.00;3042093;22;48048;-74
2022/10/31 10:25:11;;;;;;;;;14.00;12.75;;;;;18.36;67.61;101331.34;3053011;22;45230;-74
2022/10/31 10:26:29;;;;;;;;;21.50;18.50;;;;;18.35;67.47;101313.69;3059181;22;45476;-74
2022/10/31 10:27:58;;;;;;;;;21.50;16.50;;;;;18.37;67.93;101301.97;3059287;22;44601;-74
2022/10/31 10:29:38;;;;;;;;;20.00;15.00;;;;;18.40;68.41;101304.47;3059003;22;45418;-74
2022/10/31 10:31:05;;;;;;;;;14.00;14.00;;;;;18.42;67.57;101299.91;3042292;22;44636;-74
2022/10/31 10:32:28;;;;;;;;;17.75;15.50;;;;;18.49;67.52;101297.78;3051151;22;46287;-74
2022/10/31 10:34:14;;;;;;;;;21.00;17.00;;;;;18.57;67.42;101299.97;3059025;22;45213;-74
2022/10/31 10:35:49;;;;;;;;;16.50;14.50;;;;;18.63;67.09;101291.63;3051636;22;46661;-74
2022/10/31 10:37:08;;;;;;;;;18.75;15.75;;;;;18.70;66.93;101308.09;3059400;22;45149;-74
2022/10/31 10:38:34;;;;;;;;;15.75;13.25;;;;;18.77;67.04;101296.13;3042438;22;47222;-74
2022/10/31 10:39:49;;;;;;;;;18.50;15.00;;;;;18.84;67.02;101291.28;3051398;22;45140;-74
2022/10/31 10:41:05;;;;;;;;;16.25;14.50;;;;;18.91;67.12;101283.81;3058279;22;45435;-74
2022/10/31 10:43:55;;;;;;;;;18.75;16.00;;;;;19.05;65.75;101280.31;3026562;22;46252;-74
2022/10/31 10:48:43;;;;;;;;;17.50;17.00;;;;;19.27;65.27;101262.19;3035782;22;45350;-74
2022/10/31 10:49:53;;;;;;;;;17.50;15.50;;;;;19.31;65.56;101258.38;3042407;22;47273;-74
2022/10/31 10:51:10;;;;;;;;;15.00;15.00;;;;;19.36;65.32;101252.78;3046982;22;45226;-75
2022/10/31 10:52:36;;;;;;;;;15.00;13.50;;;;;19.41;64.80;101253.34;3058826;22;45416;-74
2022/10/31 10:54:16;;;;;;;;;22.25;13.50;;;;;19.47;65.11;101244.94;3059438;22;45097;-74
2022/10/31 10:55:46;;;;;;;;;21.25;16.75;;;;;19.49;65.31;101237.69;3059112;22;45427;-75
2022/10/31 10:57:21;;;;;;;;;18.00;14.00;;;;;19.50;65.07;101235.91;3042616;22;44582;-74
2022/10/31 10:58:31;;;;;;;;;17.00;14.00;;;;;19.48;64.95;101233.34;3052160;22;46042;-74
2022/10/31 10:59:42;;;;;;;;;15.25;10.75;;;;;19.49;64.48;101229.72;3042467;22;45266;-75
2022/10/31 11:00:54;;;;;;;;;16.50;14.50;;;;;19.49;64.96;101229.72;3046978;22;46176;-74
2022/10/31 11:02:18;;;;;;;;;13.25;12.50;;;;;19.50;65.02;101226.09;3059002;22;45113;-75
2022/10/31 11:03:30;;;;;;;;;14.50;13.25;;;;;19.48;65.02;101233.34;3058932;22;46113;-74
2022/10/31 11:04:42;;;;;;;;;15.00;13.50;;;;;19.47;65.15;101234.28;3042623;22;44681;-74
2022/10/31 11:05:58;;;;;;;;;16.00;13.25;;;;;19.46;64.78;101235.22;3047135;22;45377;-74
2022/10/31 11:07:10;;;;;;;;;12.25;11.25;;;;;19.45;64.60;101229.06;3059288;22;45199;-75
2022/10/31 11:08:35;;;;;;;;;20.00;16.50;;;;;19.44;64.88;101231.81;3058614;22;46217;-75
2022/10/31 11:09:46;;;;;;;;;15.00;11.50;;;;;19.45;64.55;101233.53;3059185;22;45069;-75
2022/10/31 11:10:58;;;;;;;;;19.00;16.00;;;;;19.45;64.54;101222.88;3058702;22;45260;-74
2022/10/31 11:12:30;;;;;;;;;18.50;14.00;;;;;19.44;65.10;101221.16;3059160;22;45187;-74
2022/10/31 11:13:42;;;;;;;;;12.75;12.50;;;;;19.41;64.93;101227.53;3041743;22;47665;-74
2022/10/31 11:14:59;;;;;;;;;15.50;13.50;;;;;19.38;64.60;101216.22;3047818;22;45348;-74
2022/10/31 11:16:26;;;;;;;;;14.25;12.50;;;;;19.37;64.64;101219.81;3042308;22;46969;-74
2022/10/31 11:17:39;;;;;;;;;15.50;14.75;;;;;19.36;64.74;101218.13;3051918;22;45220;-75
2022/10/31 11:18:50;;;;;;;;;15.33;13.00;;;;;19.34;65.08;101211.06;3042541;22;48171;-74
2022/10/31 11:20:03;;;;;;;;;12.50;11.75;;;;;19.34;64.63;101220.88;3032328;22;44653;-74
2022/10/31 11:21:29;;;;;;;;;16.25;15.50;;;;;19.32;64.81;101210.31;3031303;22;47960;-74
2022/10/31 11:22:44;;;;;;;;;14.25;14.00;;;;;19.32;64.13;101220.97;3035456;22;45218;-74
2022/10/31 11:24:13;;;;;;;;;10.75;10.00;;;;;19.29;64.36;101214.97;3030908;22;47302;-74
2022/10/31 11:25:26;;;;;;;;;16.50;13.25;;;;;19.30;64.51;101208.69;3052130;22;45179;-74
2022/10/31 11:26:38;;;;;;;;;16.50;12.00;;;;;19.29;64.44;101213.16;3059253;22;45288;-74
2022/10/31 11:28:08;;;;;;;;;17.50;15.00;;;;;19.31;65.03;101211.25;3059625;22;45301;-74
2022/10/31 11:29:26;;;;;;;;;14.50;12.75;;;;;19.31;64.47;101205.09;3059000;22;46193;-74
2022/10/31 11:31:07;;;;;;;;;16.50;14.25;;;;;19.34;64.86;101205.75;3059102;22;44542;-75
2022/10/31 11:32:21;;;;;;;;;12.50;11.25;;;;;19.32;64.41;101202.31;3056382;22;48341;-74
2022/10/31 11:33:46;;;;;;;;;14.25;12.25;;;;;19.32;64.30;101204.97;3043208;22;44598;-74
2022/10/31 11:35:01;;;;;;;;;13.75;13.75;;;;;19.33;64.33;101204.00;3051040;22;45328;-74
2022/10/31 11:36:16;;;;;;;;;17.50;14.50;;;;;19.36;64.05;101204.81;3059397;22;45221;-75
2022/10/31 11:37:31;;;;;;;;;15.00;15.00;;;;;19.38;64.38;101200.22;3057894;22;45364;-74
2022/10/31 11:38:43;;;;;;;;;14.50;12.50;;;;;19.39;64.47;101191.25;3042723;22;45284;-74
2022/10/31 11:39:57;;;;;;;;;16.25;14.75;;;;;19.39;64.45;101188.59;3047934;22;45200;-74
2022/10/31 11:41:11;;;;;;;;;11.75;10.75;;;;;19.36;64.59;101186.97;3058840;22;45101;-74
2022/10/31 11:42:24;;;;;;;;;15.25;12.50;;;;;19.34;64.27;101187.09;3042895;22;47851;-74
2022/10/31 11:43:34;;;;;;;;;14.50;12.75;;;;;19.36;63.45;101186.16;3048467;22;45209;-74
2022/10/31 11:44:45;;;;;;;;;16.00;14.50;;;;;19.34;63.78;101183.56;3058953;22;45378;-74
2022/10/31 11:45:56;;;;;;;;;15.50;12.50;;;;;19.37;64.59;101188.69;3059727;22;45154;-74
2022/10/31 11:47:14;;;;;;;;;15.25;10.50;;;;;19.34;64.34;101181.75;3042512;22;47655;-74
2022/10/31 11:48:25;;;;;;;;;12.25;11.50;;;;;19.33;64.31;101182.69;3049847;22;45179;-74
2022/10/31 11:49:37;;;;;;;;;15.00;13.00;;;;;19.33;64.10;101180.03;3059418;22;45330;-74
2022/10/31 11:50:56;;;;;;;;;16.50;10.50;;;;;19.36;64.25;101180.81;3059119;22;45218;-74
2022/10/31 11:52:22;;;;;;;;;16.50;14.75;;;;;19.39;63.93;101178.78;3058817;22;45467;-74
2022/10/31 11:53:34;;;;;;;;;15.50;12.25;;;;;19.40;64.44;101166.34;3059742;22;44702;-74
2022/10/31 11:54:46;;;;;;;;;18.75;11.25;;;;;19.39;63.68;101169.94;3058340;22;46318;-74
2022/10/31 11:56:26;;;;;;;;;12.50;11.75;;;;;19.40;64.18;101171.66;3042406;22;45180;-74
2022/10/31 11:57:46;;;;;;;;;13.25;11.25;;;;;19.41;64.07;101158.22;3039986;22;46073;-74
2022/10/31 11:59:04;;;;;;;;;10.75;10.00;;;;;19.40;64.14;101156.53;3059260;22;45156;-74
2022/10/31 12:00:31;;;;;;;;;15.25;11.50;;;;;19.41;64.12;101152.06;3058050;22;46833;-74
2022/10/31 12:01:48;;;;;;;;;14.50;11.25;;;;;19.42;63.96;101154.63;3059417;22;45335;-74
2022/10/31 12:03:22;;;;;;;;;15.00;11.25;;;;;19.42;63.95;101153.75;3059310;22;45562;-74
2022/10/31 12:04:44;;;;;;;;;13.50;13.00;;;;;19.44;63.86;101149.19;3059786;22;45158;-74
2022/10/31 12:06:20;;;;;;;;;13.25;11.75;;;;;19.44;64.17;101152.69;3059107;22;45163;-74
2022/10/31 12:07:31;;;;;;;;;12.25;12.25;;;;;19.42;63.77;101143.97;3058577;22;45218;-74
2022/10/31 12:08:42;;;;;;;;;16.25;13.25;;;;;19.42;64.42;101143.97;3043108;22;45436;-74
2022/10/31 12:09:52;;;;;;;;;10.75;9.00;;;;;19.40;63.99;101137.88;3047680;22;45303;-74
2022/10/31 12:11:40;;;;;;;;;12.50;12.50;;;;;19.41;64.03;101138.72;3058832;22;46079;-74
2022/10/31 12:12:50;;;;;;;;;15.75;13.75;;;;;19.41;63.67;101138.72;3059305;22;45120;-74
2022/10/31 12:14:13;;;;;;;;;11.75;11.25;;;;;19.42;63.47;101127.09;3059109;22;46583;-74
2022/10/31 12:15:33;;;;;;;;;19.50;12.25;;;;;19.43;63.53;101131.50;3043009;22;45234;-74
2022/10/31 12:16:49;;;;;;;;;11.75;10.50;;;;;19.43;63.34;101132.31;3049755;22;46067;-74
2022/10/31 12:18:16;;;;;;;;;14.75;12.25;;;;;19.43;63.56;101131.50;3042406;22;44666;-74
2022/10/31 12:19:32;;;;;;;;;14.00;13.00;;;;;19.43;63.60;101129.66;3042552;22;47356;-74
2022/10/31 12:21:10;;;;;;;;;11.00;10.75;;;;;19.44;62.85;101126.06;3048980;22;44535;-74
2022/10/31 12:22:52;;;;;;;;;11.75;11.50;;;;;19.47;63.43;101124.13;3059619;22;46853;-74
2022/10/31 12:24:25;;;;;;;;;15.25;12.00;;;;;19.48;63.41;101116.06;3051988;22;45764;-74
2022/10/31 12:25:50;;;;;;;;;14.50;11.50;;;;;19.50;63.56;101111.47;3059103;22;46537;-74
2022/10/31 12:27:29;;;;;;;;;14.00;13.00;;;;;19.51;63.19;101099.84;3058730;22;44655;-74
2022/10/31 12:29:15;;;;;;;;;13.25;11.50;;;;;19.52;64.01;101106.91;3059166;22;45610;-74
2022/10/31 12:30:39;;;;;;;;;13.00;8.50;;;;;19.48;63.08;101092.06;3041646;22;45632;-74
2022/10/31 12:32:08;;;;;;;;;13.25;11.25;;;;;19.51;63.15;101091.84;3058773;22;45215;-74
2022/10/31 12:33:56;;;;;;;;;6.25;4.00;;;;;19.52;63.28;101085.56;3059110;22;45258;-74
2022/10/31 12:35:06;;;;;;;;;4.75;2.75;;;;;19.54;63.30;101082.78;3042087;22;47123;-74
2022/10/31 12:36:39;;;;;;;;;18.25;12.75;;;;;19.55;63.48;101084.50;3046915;22;45270;-74
2022/10/31 12:38:10;;;;;;;;;12.75;9.75;;;;;19.55;63.10;101077.38;3059557;22;45416;-74
2022/10/31 12:40:01;;;;;;;;;14.00;11.25;;;;;19.53;62.96;101076.59;3059519;22;45243;-74
2022/10/31 12:41:20;;;;;;;;;11.25;11.25;;;;;19.55;62.71;101072.06;3009583;22;45462;-74
2022/10/31 12:42:44;;;;;;;;;13.75;11.75;;;;;19.58;63.13;101062.13;3042960;22;45274;-74
2022/10/31 12:44:06;;;;;;;;;15.75;13.25;;;;;19.58;62.90;101062.13;3042884;22;48439;-74